Latest Coastal Weather Observations for Cape Jaffa

IDS60701

Issued at 7:51 pm CST Saturday 5 September 2015 (issued every 10 minutes, with the page automatically refreshed every 10 minutes)

About coastal observations | Map of coastal stations | Coastal observations for SA | Marine services | Other Formats
Station Details ID: 026095 Name: THE LIMESTONE Lat: -36.97 Lon: 139.72 Height: 17.0 m
Data from the previous 72 hours. | See also: Recent months at Cape Jaffa
Date/Time
CST
Temp

°C
Wind Pressure Rain
since 9am
mm
Weather Cloud Vis
km
Sea
Height
m
Swell
Dir
 
Speed
knots
Gust
knots
hPa Trend Height
m
Period
s
Dir
05/07:30pm 10.4 CALM 0 0 1021.3 - 0.0 - - - - - - -
05/07:00pm 10.0 CALM 0 0 1021.3 - 0.0 - - - - - - -
05/06:30pm 10.5 ESE 2 2 1021.0 - 0.0 - - - - - - -
05/06:00pm 10.9 ESE 3 3 1020.7 - 0.0 - - - - - - -
05/05:30pm 11.4 E 2 2 1020.7 - 0.0 - - - - - - -
05/05:00pm 11.6 CALM 0 1 1021.0 - 0.0 - - - - - - -
05/04:30pm 12.1 NW 3 4 1021.1 - 0.0 - - - - - - -
05/04:00pm 12.3 NW 3 5 1021.0 - 0.0 - - - - - - -
05/03:30pm 12.2 NW 5 7 1021.4 - 0.0 - - - - - - -
05/03:00pm 12.8 NNW 5 8 1021.5 - 0.0 - - - - - - -
05/02:30pm 12.9 N 8 11 1021.7 - 0.0 - - - - - - -
05/02:00pm 13.5 N 8 12 1021.6 - 0.0 - - - - - - -
05/01:30pm 13.7 N 9 12 1022.1 - 0.0 - - - - - - -
05/01:00pm 13.0 N 8 10 1022.4 - 0.0 - - - - - - -
05/12:30pm 12.4 NNE 9 12 1023.0 - 0.0 - - - - - - -
05/12:00pm 12.6 N 8 11 1023.5 - 0.0 - - - - - - -
05/11:30am 12.5 N 8 10 1024.1 - 0.0 - - - - - - -
05/11:00am 12.7 N 7 10 1024.6 - 0.0 - - - - - - -
05/10:30am 12.3 NNE 6 10 1024.9 - 0.0 - - - - - - -
05/10:00am 11.2 ENE 6 8 1025.2 - 0.0 - - - - - - -
05/09:30am 10.8 ENE 8 10 1025.1 - 0.0 - - - - - - -
05/09:00am 9.8 ENE 7 8 1025.5 - 0.2 - - - - - - -
05/08:30am 8.9 ENE 6 7 1025.7 - 0.2 - - - - - - -
05/08:00am 7.9 ENE 4 5 1026.0 - 0.2 - - - - - - -
05/07:30am 7.1 ENE 4 5 1025.9 - 0.2 - - - - - - -
05/07:00am 6.8 E 4 5 1025.7 - 0.2 - - - - - - -
05/06:30am 6.5 E 4 5 1025.3 - 0.2 - - - - - - -
05/06:00am 7.1 E 3 4 1025.2 - 0.2 - - - - - - -
05/05:30am 7.0 E 4 6 1024.9 - 0.2 - - - - - - -
05/05:00am 7.0 ESE 3 5 1024.9 - 0.2 - - - - - - -
05/04:30am 6.9 ENE 2 4 1024.6 - 0.2 - - - - - - -
05/04:00am 6.8 ENE 4 6 1024.4 - 0.2 - - - - - - -
05/03:30am 6.6 ENE 4 5 1024.4 - 0.2 - - - - - - -
05/03:00am 6.1 E 5 5 1024.5 - 0.2 - - - - - - -
05/02:30am 5.9 E 5 5 1024.9 - 0.2 - - - - - - -
05/02:00am 5.4 E 5 5 1025.1 - 0.2 - - - - - - -
05/01:30am 5.7 E 6 6 1025.2 - 0.2 - - - - - - -
05/01:00am 6.3 E 3 4 1025.3 - 0.2 - - - - - - -
05/12:30am 7.4 E 3 4 1025.5 - 0.2 - - - - - - -
05/12:00am 8.2 ESE 3 4 1025.7 - 0.2 - - - - - - -
 
Date/Time
CST
Temp

°C
Wind Pressure Rain
since 9am
mm
Weather Cloud Vis
km
Sea
Height
m
Swell
Dir
 
Speed
knots
Gust
knots
hPa Trend Height
m
Period
s
Dir
04/11:30pm 8.9 SE 3 4 1026.0 - 0.2 - - - - - - -
04/11:00pm 9.8 SE 2 3 1026.4 - 0.2 - - - - - - -
04/10:30pm 9.7 CALM 0 1 1026.7 - 0.2 - - - - - - -
04/10:00pm 10.0 S 3 5 1026.8 - 0.2 - - - - - - -
04/09:30pm 9.8 S 3 5 1026.9 - 0.2 - - - - - - -
04/09:00pm 9.8 S 5 6 1026.8 - 0.2 - - - - - - -
04/08:30pm 10.3 SSE 3 4 1026.7 - 0.2 - - - - - - -
04/08:00pm 10.1 SSE 3 4 1026.6 - 0.2 - - - - - - -
04/07:30pm 10.3 S 4 5 1026.4 - 0.2 - - - - - - -
04/07:00pm 10.2 WSW 4 5 1026.4 - 0.2 - - - - - - -
04/06:30pm 9.6 SSW 6 8 1026.3 - 0.2 - - - - - - -
04/06:00pm 10.1 SW 6 7 1026.3 - 0.2 - - - - - - -
04/05:30pm 9.8 SW 4 6 1026.1 - 0.2 - - - - - - -
04/05:00pm 10.1 SW 5 6 1026.0 - 0.2 - - - - - - -
04/04:30pm 10.3 SW 5 5 1025.8 - 0.2 - - - - - - -
04/04:00pm 11.9 SW 6 7 1025.9 - 0.2 - - - - - - -
04/03:30pm 12.8 SW 7 9 1025.9 - 0.2 - - - - - - -
04/03:00pm 13.2 WSW 7 10 1025.9 - 0.2 - - - - - - -
04/02:30pm 13.0 WSW 7 10 1026.0 - 0.2 - - - - - - -
04/02:00pm 12.8 SW 8 10 1026.1 - 0.2 - - - - - - -
04/01:30pm 12.9 WSW 7 10 1026.2 - 0.2 - - - - - - -
04/01:00pm 13.1 SSW 6 9 1026.3 - 0.2 - - - - - - -
04/12:30pm 12.7 SW 5 10 1026.7 - 0.2 - - - - - - -
04/12:00pm 12.4 WSW 4 8 1027.2 - 0.2 Rain - - - - - -
04/11:30am 13.2 WSW 4 7 1027.4 - 0.0 - - - - - - -
04/11:00am 12.9 SW 4 7 1027.7 - 0.0 - - - - - - -
04/10:30am 12.3 S 3 4 1028.0 - 0.0 - - - - - - -
04/10:00am 12.3 SSE 3 5 1028.1 - 0.0 - - - - - - -
04/09:30am 12.2 E 2 4 1028.1 - 0.0 - - - - - - -
04/09:00am 11.7 SE 2 3 1028.3 - 0.2 - - - - - - -
04/08:30am 11.2 CALM 0 1 1028.4 - 0.2 - - - - - - -
04/08:00am 10.4 ESE 1 2 1028.1 - 0.2 - - - - - - -
04/07:30am 9.8 SE 3 5 1027.9 - 0.2 - - - - - - -
04/07:00am 9.3 SE 3 5 1027.3 - 0.2 - - - - - - -
04/06:30am 9.6 S 5 6 1027.1 - 0.2 - - - - - - -
04/06:00am 9.8 SSE 4 6 1026.7 - 0.2 - - - - - - -
04/05:30am 9.9 S 6 10 1026.7 - 0.2 - - - - - - -
04/05:00am 9.7 SE 3 6 1026.5 - 0.2 - - - - - - -
04/04:30am 9.8 SSE 5 7 1026.2 - 0.2 - - - - - - -
04/04:00am 9.4 S 4 5 1026.0 - 0.2 - - - - - - -
04/03:30am 9.6 S 5 6 1025.9 - 0.2 - - - - - - -
04/03:00am 9.5 S 5 7 1026.0 - 0.2 - - - - - - -
04/02:30am 9.8 SSE 4 7 1026.1 - 0.2 - - - - - - -
04/02:00am 10.1 S 7 9 1026.3 - 0.2 - - - - - - -
04/01:30am 10.4 S 9 12 1026.3 - 0.2 - - - - - - -
04/01:00am 9.9 S 4 6 1026.3 - 0.2 - - - - - - -
04/12:30am 10.0 SSE 5 7 1026.1 - 0.2 - - - - - - -
04/12:00am 9.9 SSE 4 5 1026.1 - 0.2 - - - - - - -
 
Date/Time
CST
Temp

°C
Wind Pressure Rain
since 9am
mm
Weather Cloud Vis
km
Sea
Height
m
Swell
Dir
 
Speed
knots
Gust
knots
hPa Trend Height
m
Period
s
Dir
03/11:30pm 10.1 SSE 4 6 1026.2 - 0.2 - - - - - - -
03/11:00pm 10.1 S 8 10 1026.1 - 0.2 - - - - - - -
03/10:30pm 9.9 S 8 10 1026.1 - 0.2 - - - - - - -
03/10:00pm 9.5 SE 4 7 1026.0 - 0.2 - - - - - - -
03/09:30pm 10.0 SSE 8 11 1025.9 - 0.2 - - - - - - -
03/09:00pm 10.2 S 7 10 1025.7 - 0.2 - - - - - - -
03/08:30pm 10.0 S 7 9 1025.4 - 0.2 - - - - - - -
03/08:00pm 10.0 S 8 10 1025.2 - 0.2 - - - - - - -
03/07:30pm 10.7 SSE 8 10 1024.9 - 0.2 - - - - - - -
03/07:00pm 10.9 S 10 13 1024.5 - 0.2 - - - - - - -
03/06:30pm 10.9 S 11 15 1024.2 - 0.2 - - - - - - -
03/06:00pm 10.5 S 10 12 1023.7 - 0.2 - - - - - - -
03/05:30pm 10.6 S 12 15 1023.4 - 0.2 - - - - - - -
03/05:00pm 11.6 S 15 18 1022.9 - 0.2 - - - - - - -
03/04:30pm 11.9 S 17 20 1022.5 - 0.2 - - - - - - -
03/04:00pm 12.1 S 17 21 1022.2 - 0.2 - - - - - - -
03/03:30pm 12.7 S 18 23 1021.9 - 0.2 - - - - - - -
03/03:00pm 13.9 S 18 22 1021.6 - 0.2 - - - - - - -
03/02:30pm 13.1 S 18 22 1021.3 - 0.2 - - - - - - -
03/02:00pm 13.4 SSW 17 21 1021.0 - 0.2 - - - - - - -
03/01:30pm 13.5 S 20 23 1020.6 - 0.2 - - - - - - -
03/01:00pm 13.8 S 19 24 1020.4 - 0.2 - - - - - - -
03/12:30pm 14.1 S 19 24 1020.6 - 0.2 - - - - - - -
03/12:00pm 13.3 S 20 25 1020.5 - 0.2 - - - - - - -
03/11:30am 13.1 S 20 25 1020.4 - 0.2 - - - - - - -
03/11:00am 13.5 S 20 24 1020.0 - 0.2 - - - - - - -
03/10:30am 12.6 S 18 23 1019.7 - 0.2 - - - - - - -
03/10:00am 12.4 SSW 19 26 1019.3 - 0.2 - - - - - - -
03/09:30am 13.7 S 19 24 1018.9 - 0.0 - - - - - - -
03/09:00am 13.5 S 18 24 1018.2 - 7.4 - - - - - - -
03/08:30am 12.8 S 18 23 1017.9 - 7.4 - - - - - - -
03/08:00am 12.7 S 16 21 1017.2 - 7.4 - - - - - - -
03/07:30am 12.4 S 13 18 1016.4 - 7.4 - - - - - - -
03/07:00am 11.7 S 14 17 1015.6 - 7.4 - - - - - - -
03/06:30am 11.5 S 17 21 1014.7 - 7.4 - - - - - - -
03/06:00am 11.9 S 16 21 1014.1 - 7.4 Recent precip. - - - - - -
03/05:30am 11.9 S 15 20 1013.6 - 7.2 - - - - - - -
03/05:00am 12.0 S 16 20 1012.8 - 7.2 - - - - - - -
03/04:30am 12.1 S 16 20 1012.2 - 7.2 - - - - - - -
03/04:00am 12.1 S 16 21 1011.5 - 7.2 - - - - - - -
03/03:30am 12.0 S 17 21 1010.9 - 7.2 - - - - - - -
03/03:00am 11.9 S 15 20 1010.6 - 7.2 - - - - - - -
03/02:30am 11.6 S 15 18 1010.3 - 7.2 - - - - - - -
03/02:00am 11.6 S 15 19 1010.3 - 7.2 - - - - - - -
03/01:30am 11.2 SSW 14 17 1010.1 - 7.2 - - - - - - -
03/01:00am 11.3 SSW 10 13 1010.1 - 7.2 - - - - - - -
03/12:30am 10.2 SW 3 4 1010.1 - 7.2 - - - - - - -
03/12:00am 9.4 SSW 3 3 1009.8 - 6.6 - - - - - - -
 
Date/Time
CST
Temp

°C
Wind Pressure Rain
since 9am
mm
Weather Cloud Vis
km
Sea
Height
m
Swell
Dir
 
Speed
knots
Gust
knots
hPa Trend Height
m
Period
s
Dir
02/11:30pm 9.3 SSW 4 5 1009.8 - 6.6 - - - - - - -
02/11:00pm 9.2 SE 3 4 1009.4 - 6.6 - - - - - - -
02/10:30pm 9.1 SSE 3 3 1009.3 - 6.6 - - - - - - -
02/10:00pm 9.3 SSE 3 5 1009.3 - 6.4 - - - - - - -
02/09:30pm 9.5 SSE 5 6 1009.1 - 6.2 - - - - - - -
02/09:00pm 9.5 SE 4 6 1008.5 - 6.0 Rain - - - - - -
02/08:30pm 9.8 SE 6 9 1008.0 - 5.8 - - - - - - -
02/08:00pm 10.2 SE 6 9 1007.4 - 5.4 - - - - - - -

Other Formats:

Comma delimited format used in spreadsheet applications
http://www.bom.gov.au/fwo/IDS60701/IDS60701.94813.axf

JavaScript Object Notation format (JSON) in row-major order
http://www.bom.gov.au/fwo/IDS60701/IDS60701.94813.json